Time;durP1;ratioP1;P1;durP2;ratioP2;P2;SDS_P1;SDS_P2;PMS_P1;PMS_P2;Temp;Humidity;BMP_temperature;BMP_pressure;BME280_temperature;BME280_humidity;BME280_pressure;Samples;Min_cycle;Max_cycle;Signal;HPM_P1;HPM_P2
2022/11/17 00:01:38;;;;;;;11.00;8.85;;;;;;;22.77;43.79;93689.06;5015515;28;20053;-65
2022/11/17 00:04:04;;;;;;;13.10;8.88;;;;;;;21.61;43.17;93510.50;4981269;28;20049;-64
2022/11/17 00:06:29;;;;;;;13.27;9.02;;;;;;;23.00;43.37;93715.13;4964473;28;20041;-61
2022/11/17 00:08:55;;;;;;;11.88;8.85;;;;;;;22.98;43.09;93696.59;4978814;28;20092;-65
2022/11/17 00:11:20;;;;;;;11.35;8.88;;;;;;;22.95;43.32;93707.84;4995849;28;20459;-65
2022/11/17 00:16:29;;;;;;;12.25;9.30;;;;;;;22.89;43.78;93699.81;5001141;28;20049;-67
2022/11/17 00:21:39;;;;;;;12.63;9.25;;;;;;;22.64;43.62;93662.66;5012807;28;20572;-65
2022/11/17 00:24:05;;;;;;;11.98;9.10;;;;;;;22.88;43.43;93696.91;4997933;28;20033;-63
2022/11/17 00:26:32;;;;;;;12.48;8.43;;;;;;;21.68;43.41;93540.44;4996749;28;20041;-65
2022/11/17 00:29:03;;;;;;;13.10;9.60;;;;;;;22.84;43.79;93718.28;4996264;28;20060;-63
2022/11/17 00:34:15;;;;;;;12.15;9.07;;;;;;;22.81;43.99;93735.69;5014595;28;20537;-66
2022/11/17 00:36:44;;;;;;;11.65;8.55;;;;;;;22.82;44.06;93731.72;4996285;28;20044;-65
2022/11/17 00:39:10;;;;;;;10.55;8.13;;;;;;;22.79;43.58;93719.91;4997400;28;20560;-67
2022/11/17 00:41:36;;;;;;;10.27;8.18;;;;;;;22.76;44.32;93706.63;5014023;28;20042;-67
2022/11/17 00:44:01;;;;;;;11.45;8.70;;;;;;;22.62;44.18;93669.91;5013947;28;20053;-66
2022/11/17 00:46:27;;;;;;;12.18;9.00;;;;;;;22.55;43.81;93681.47;4976649;28;20057;-61
2022/11/17 00:48:52;;;;;;;13.10;9.43;;;;;;;22.59;44.16;93692.75;4975790;28;20108;-65
2022/11/17 00:51:18;;;;;;;10.93;8.48;;;;;;;22.44;44.21;93660.03;4976976;28;20486;-64
2022/11/17 00:53:44;;;;;;;11.90;8.75;;;;;;;22.69;44.24;93685.53;4996310;28;20033;-65
2022/11/17 00:56:09;;;;;;;11.45;8.85;;;;;;;22.66;44.04;93670.28;5014062;28;20081;-61
2022/11/17 00:58:35;;;;;;;11.05;8.27;;;;;;;22.67;43.79;93685.34;5013610;28;20518;-64
2022/11/17 01:01:01;;;;;;;12.05;9.23;;;;;;;22.67;44.00;93677.19;5013390;28;20045;-61
2022/11/17 01:03:26;;;;;;;11.93;8.55;;;;;;;22.65;44.16;93663.41;5014326;28;20060;-64
2022/11/17 01:05:52;;;;;;;11.65;8.68;;;;;;;22.64;44.29;93678.28;4996654;28;20049;-66
2022/11/17 01:08:17;;;;;;;13.10;8.93;;;;;;;22.64;44.21;93662.66;5012917;28;20041;-65
2022/11/17 01:10:42;;;;;;;11.38;8.82;;;;;;;21.37;43.81;93480.97;4979080;28;20049;-65
2022/11/17 01:13:08;;;;;;;11.57;8.73;;;;;;;21.06;44.02;93446.75;5013671;28;20558;-66
2022/11/17 01:15:33;;;;;;;11.63;8.73;;;;;;;22.57;44.24;93662.63;5013292;28;20041;-63
2022/11/17 01:17:59;;;;;;;11.15;8.75;;;;;;;22.40;44.03;93659.63;5013349;28;20037;-65
2022/11/17 01:20:24;;;;;;;12.55;9.05;;;;;;;21.32;43.93;93481.84;4978020;28;20563;-62
2022/11/17 01:22:52;;;;;;;11.48;8.73;;;;;;;22.51;44.29;93670.94;4996015;28;20049;-66
2022/11/17 01:25:17;;;;;;;11.68;8.98;;;;;;;22.56;44.58;93677.50;4996873;28;20045;-64
2022/11/17 01:27:43;;;;;;;12.27;8.77;;;;;;;20.23;43.80;93319.09;4996011;28;20044;-62
2022/11/17 01:30:09;;;;;;;10.95;8.35;;;;;;;22.54;44.30;93647.38;4996844;28;20379;-64
2022/11/17 01:32:34;;;;;;;10.27;8.27;;;;;;;22.52;44.07;93644.47;5013557;28;20115;-62
2022/11/17 01:35:00;;;;;;;11.90;8.77;;;;;;;22.38;44.50;93643.13;5000310;28;20041;-60
2022/11/17 01:37:25;;;;;;;12.25;8.52;;;;;;;22.50;44.25;93663.31;4999849;28;20034;-64
2022/11/17 01:39:51;;;;;;;10.75;8.23;;;;;;;22.06;44.23;93588.34;5000443;28;20090;-65
2022/11/17 01:42:20;;;;;;;10.55;8.50;;;;;;;22.43;44.02;93634.81;5019285;28;20101;-63
2022/11/17 01:45:19;;;;;;;12.30;8.65;;;;;;;22.49;44.28;93645.53;5000706;28;20041;-63
2022/11/17 01:47:58;;;;;;;11.98;9.05;;;;;;;22.36;44.22;93645.66;4982235;28;20556;-65
2022/11/17 01:50:39;;;;;;;10.52;7.90;;;;;;;22.46;44.54;93635.72;4980516;28;20069;-63
2022/11/17 01:53:11;;;;;;;12.23;8.13;;;;;;;22.41;44.11;93642.06;5012167;28;20054;-65
2022/11/17 01:55:42;;;;;;;10.98;8.38;;;;;;;22.37;44.20;93614.47;5001625;28;20072;-65
2022/11/17 01:58:09;;;;;;;11.27;8.45;;;;;;;22.43;44.19;93632.09;4981800;28;20050;-64
2022/11/17 02:00:35;;;;;;;10.40;8.18;;;;;;;22.34;44.29;93620.97;4994396;28;20513;-65
2022/11/17 02:03:00;;;;;;;11.00;8.43;;;;;;;22.42;44.36;93635.34;5014729;28;20025;-63
2022/11/17 02:05:40;;;;;;;11.07;8.25;;;;;;;22.41;44.54;93628.47;4999390;28;20041;-60
2022/11/17 02:08:06;;;;;;;10.90;8.43;;;;;;;22.40;44.34;93643.31;4985871;28;20052;-65
2022/11/17 02:10:31;;;;;;;9.90;7.88;;;;;;;22.37;44.55;93628.06;4984376;28;20456;-62
2022/11/17 02:12:57;;;;;;;10.43;7.85;;;;;;;20.10;44.17;93294.78;4984349;28;20029;-64
2022/11/17 02:15:23;;;;;;;11.45;8.20;;;;;;;22.16;44.38;93602.88;4984391;28;20441;-64
2022/11/17 02:17:48;;;;;;;10.13;8.27;;;;;;;21.22;44.35;93448.28;5001040;28;20420;-63
2022/11/17 02:20:17;;;;;;;10.35;8.40;;;;;;;21.81;44.61;93555.91;4980239;28;20056;-66
2022/11/17 02:23:20;;;;;;;11.02;8.13;;;;;;;22.35;44.39;93614.28;4974713;28;20823;-60
2022/11/17 02:26:02;;;;;;;10.48;8.05;;;;;;;22.34;44.46;93664.47;5017401;28;20056;-63
2022/11/17 02:28:31;;;;;;;10.38;7.88;;;;;;;22.35;44.73;93625.16;5000034;28;20069;-63
2022/11/17 02:31:24;;;;;;;11.02;7.95;;;;;;;22.35;44.34;93619.72;5016670;28;20037;-65
2022/11/17 02:34:26;;;;;;;11.13;8.20;;;;;;;22.35;44.56;93640.75;4988439;28;20072;-66
2022/11/17 02:36:55;;;;;;;10.50;7.85;;;;;;;22.32;44.41;93626.22;4997858;28;20435;-63
2022/11/17 02:39:22;;;;;;;10.32;7.78;;;;;;;22.31;44.39;93624.03;4999907;28;20069;-63
2022/11/17 02:42:08;;;;;;;10.48;8.23;;;;;;;22.32;44.27;93614.63;4982743;28;20053;-62
2022/11/17 02:44:36;;;;;;;11.48;8.38;;;;;;;22.31;44.37;93602.28;4983154;28;20073;-63
2022/11/17 02:47:22;;;;;;;10.40;8.38;;;;;;;21.19;44.56;93433.06;4999329;28;20049;-62
2022/11/17 02:50:05;;;;;;;11.05;7.45;;;;;;;21.20;44.72;93450.09;4980375;28;20046;-65
2022/11/17 02:52:30;;;;;;;11.55;7.93;;;;;;;20.92;44.31;93403.94;4977772;28;20042;-63
2022/11/17 02:55:00;;;;;;;10.35;8.13;;;;;;;22.26;44.65;93579.41;4999392;28;20127;-66
2022/11/17 02:57:39;;;;;;;10.65;7.68;;;;;;;22.27;44.36;93624.41;4999615;28;20139;-61
2022/11/17 03:00:11;;;;;;;10.25;7.78;;;;;;;22.27;44.45;93597.19;4981632;28;20041;-65
2022/11/17 03:02:46;;;;;;;9.35;7.45;;;;;;;22.25;44.78;93596.28;4998278;28;20045;-64
2022/11/17 03:05:13;;;;;;;11.02;7.85;;;;;;;21.26;44.34;93464.97;4998838;28;20064;-63
2022/11/17 03:08:02;;;;;;;10.55;7.60;;;;;;;19.49;44.40;93215.47;4999540;28;20041;-64
2022/11/17 03:10:46;;;;;;;9.10;7.80;;;;;;;22.26;44.72;93605.91;5002273;28;20064;-65
2022/11/17 03:13:12;;;;;;;9.77;7.80;;;;;;;21.19;44.36;93438.50;4999686;28;20073;-65
2022/11/17 03:15:46;;;;;;;9.10;7.65;;;;;;;22.08;44.45;93569.50;5016744;28;20528;-63
2022/11/17 03:18:45;;;;;;;10.20;7.97;;;;;;;22.25;44.50;93599.72;4999557;28;20597;-65
2022/11/17 03:21:14;;;;;;;9.45;7.30;;;;;;;22.23;44.79;93602.25;4958558;28;20522;-64
2022/11/17 03:23:51;;;;;;;10.32;7.78;;;;;;;22.23;44.88;93613.13;5016310;28;20053;-60
2022/11/17 03:26:26;;;;;;;9.50;7.40;;;;;;;22.06;44.52;93561.16;4999470;28;20038;-65
2022/11/17 03:28:51;;;;;;;8.95;7.28;;;;;;;22.20;44.82;93625.03;4982765;28;20061;-64
2022/11/17 03:31:17;;;;;;;9.35;7.40;;;;;;;22.17;44.84;93598.19;4980747;28;20050;-66
2022/11/17 03:33:42;;;;;;;10.00;7.72;;;;;;;22.19;44.82;93588.22;4977983;28;20038;-63
2022/11/17 03:36:12;;;;;;;10.38;7.65;;;;;;;20.95;44.53;93407.56;4978736;28;20038;-64
2022/11/17 03:38:40;;;;;;;;;;;;;;;22.18;44.73;93622.13;4978693;28;20510;-65
2022/11/17 03:41:06;;;;;;;9.32;7.22;;;;;;;21.93;44.86;93604.75;4989713;28;19925;-60
2022/11/17 03:43:32;;;;;;;9.93;7.38;;;;;;;22.20;44.86;93635.91;4978401;28;20072;-65
2022/11/17 03:46:01;;;;;;;9.82;7.45;;;;;;;22.18;44.60;93613.97;5004580;28;20156;-64
2022/11/17 03:48:42;;;;;;;10.23;7.37;;;;;;;22.12;44.67;93604.50;4997816;28;20123;-61
2022/11/17 03:51:14;;;;;;;8.75;7.35;;;;;;;20.87;44.47;93429.22;4980562;28;20088;-65
2022/11/17 03:53:39;;;;;;;8.90;7.20;;;;;;;21.01;44.71;93447.59;4980626;28;20100;-63
2022/11/17 03:56:19;;;;;;;9.02;6.90;;;;;;;22.13;44.87;93593.09;4981039;28;20151;-65
2022/11/17 03:58:53;;;;;;;9.75;7.55;;;;;;;22.12;44.84;93599.81;5015462;28;20052;-66
2022/11/17 04:01:19;;;;;;;8.02;6.60;;;;;;;22.00;44.75;93568.75;4998055;28;20213;-61
2022/11/17 04:03:45;;;;;;;8.18;6.90;;;;;;;22.13;44.69;93593.09;4997162;28;20706;-65
2022/11/17 04:06:11;;;;;;;10.13;7.30;;;;;;;21.90;44.68;93558.13;4992530;28;20041;-62
2022/11/17 04:08:37;;;;;;;8.60;6.82;;;;;;;22.13;44.91;93597.81;4980751;28;20042;-66
2022/11/17 04:16:30;;;;;;;10.10;7.38;;;;;;;22.12;44.72;93590.91;4993397;28;20080;-62
2022/11/17 04:18:56;;;;;;;8.40;6.65;;;;;;;22.12;44.79;93575.34;4981322;28;20464;-63
2022/11/17 04:21:21;;;;;;;9.07;7.05;;;;;;;20.71;44.42;93361.81;4996915;28;20029;-61
2022/11/17 04:23:47;;;;;;;9.32;7.30;;;;;;;21.90;44.80;93552.69;5013090;28;20054;-64
2022/11/17 04:28:57;;;;;;;8.98;6.90;;;;;;;21.98;44.82;93571.25;5014458;28;20044;-65
2022/11/17 04:31:25;;;;;;;7.72;6.18;;;;;;;22.11;44.79;93568.44;4979554;28;20497;-63
2022/11/17 04:33:53;;;;;;;9.40;7.03;;;;;;;22.11;44.91;93573.16;4996021;28;20045;-61
2022/11/17 04:36:20;;;;;;;9.73;7.47;;;;;;;22.11;44.92;93567.72;4997014;28;20064;-66
2022/11/17 04:38:47;;;;;;;9.95;7.10;;;;;;;21.55;44.54;93490.91;4982294;28;20077;-64
2022/11/17 04:43:58;;;;;;;8.73;6.60;;;;;;;21.95;45.02;93536.97;5003958;28;20079;-64
2022/11/17 04:46:24;;;;;;;8.40;6.53;;;;;;;22.10;44.69;93558.81;4997559;28;20048;-64
2022/11/17 04:48:50;;;;;;;9.95;6.63;;;;;;;21.84;44.81;93505.94;4979789;28;20045;-66
2022/11/17 04:51:16;;;;;;;10.27;6.75;;;;;;;22.06;45.14;93555.72;4997459;28;20043;-66
2022/11/17 04:53:42;;;;;;;9.23;7.05;;;;;;;22.13;45.26;93555.03;5012845;28;20432;-62
2022/11/17 04:56:08;;;;;;;12.38;9.00;;;;;;;19.01;49.05;93520.16;4991424;28;20042;-63
2022/11/17 04:58:33;;;;;;;11.85;7.72;;;;;;;19.28;50.24;93552.94;5005621;28;20126;-61
2022/11/17 05:01:11;;;;;;;10.07;7.22;;;;;;;20.62;47.56;93554.78;4996432;28;20589;-65
2022/11/17 05:03:43;;;;;;;10.15;7.03;;;;;;;21.51;45.86;93544.84;4962129;28;20033;-61
2022/11/17 05:06:28;;;;;;;9.10;6.50;;;;;;;21.98;45.05;93549.50;4996734;28;20072;-63
2022/11/17 05:08:54;;;;;;;8.15;6.07;;;;;;;22.26;44.51;93546.78;4990094;28;20053;-61
2022/11/17 05:14:06;;;;;;;7.38;6.10;;;;;;;22.55;43.81;93523.69;4963022;28;20053;-63
2022/11/17 05:17:31;;;;;;;8.50;6.35;;;;;;;22.75;43.59;93525.56;5014678;28;20053;-62
2022/11/17 05:19:26;;;;;;;8.27;6.15;;;;;;;22.79;43.23;93525.94;4989682;28;20116;-69
2022/11/17 05:21:52;;;;;;;9.30;6.28;;;;;;;22.87;42.73;93521.22;4997303;28;20080;-66
2022/11/17 05:24:18;;;;;;;8.32;5.85;;;;;;;23.04;43.04;93536.53;4998646;28;20411;-64
2022/11/17 05:26:44;;;;;;;7.47;6.05;;;;;;;21.34;42.57;93294.69;5014654;28;20044;-66
2022/11/17 05:29:11;;;;;;;7.95;5.80;;;;;;;23.09;42.83;93511.16;4997917;28;20039;-64
2022/11/17 05:31:36;;;;;;;9.00;5.93;;;;;;;23.52;42.17;93510.97;5014981;28;20394;-65
2022/11/17 05:34:03;;;;;;;7.70;5.60;;;;;;;23.72;41.73;93515.50;4976433;28;20252;-66
2022/11/17 05:36:29;;;;;;;7.80;5.95;;;;;;;22.70;41.30;93355.03;5011703;28;20108;-67
2022/11/17 05:38:54;;;;;;;7.35;5.47;;;;;;;23.59;41.84;93504.78;4981895;28;20117;-66
2022/11/17 05:41:20;;;;;;;8.45;5.85;;;;;;;23.61;42.06;93515.88;5013300;28;20042;-68
2022/11/17 05:43:46;;;;;;;7.05;5.25;;;;;;;23.74;41.74;93540.25;5014279;28;20064;-65
2022/11/17 05:46:12;;;;;;;6.32;5.32;;;;;;;23.77;41.51;93523.50;4996380;28;20541;-66
2022/11/17 05:48:38;;;;;;;7.10;5.32;;;;;;;22.94;41.65;93434.91;4980052;28;20042;-63
2022/11/17 05:51:04;;;;;;;6.68;5.22;;;;;;;23.88;41.69;93529.31;4979653;28;20029;-63
2022/11/17 05:53:29;;;;;;;6.95;5.63;;;;;;;23.04;41.25;93399.69;5013544;28;20130;-66
2022/11/17 05:56:23;;;;;;;6.55;5.43;;;;;;;24.12;40.95;93531.44;4994681;28;20435;-65
2022/11/17 05:58:51;;;;;;;7.63;6.05;;;;;;;23.23;42.26;93515.16;4994472;28;20111;-64
2022/11/17 06:01:17;;;;;;;7.95;5.85;;;;;;;24.06;40.90;93532.91;4995923;28;20128;-67
2022/11/17 06:03:45;;;;;;;8.05;5.88;;;;;;;24.08;40.79;93520.19;4979015;28;20483;-62
2022/11/17 06:06:10;;;;;;;7.50;5.32;;;;;;;24.31;40.57;93515.38;4975877;28;20072;-66
2022/11/17 06:08:36;;;;;;;7.63;5.47;;;;;;;24.48;40.37;93540.81;5011098;28;20042;-65
2022/11/17 06:11:01;;;;;;;6.90;5.20;;;;;;;24.23;40.47;93492.13;5013038;28;20085;-62
2022/11/17 06:13:27;;;;;;;6.72;5.50;;;;;;;24.40;40.42;93533.94;4994507;28;20438;-66
2022/11/17 06:15:58;;;;;;;7.28;5.70;;;;;;;24.37;40.55;93545.94;4978619;28;20139;-66
2022/11/17 06:18:26;;;;;;;6.63;5.38;;;;;;;24.07;41.20;93513.28;4979524;28;20049;-63
2022/11/17 06:20:52;;;;;;;6.78;4.80;;;;;;;23.66;40.95;93425.03;4983482;28;20498;-67
2022/11/17 06:23:18;;;;;;;6.38;5.35;;;;;;;24.84;39.90;93555.59;5015071;28;20107;-61
2022/11/17 06:25:44;;;;;;;7.03;5.15;;;;;;;24.67;39.58;93573.13;4998162;28;21257;-65
2022/11/17 06:28:11;;;;;;;6.25;4.90;;;;;;;24.82;40.04;93585.44;4958740;28;20037;-61
2022/11/17 06:30:37;;;;;;;6.57;4.90;;;;;;;24.77;40.70;93598.56;4979478;28;20083;-65
2022/11/17 06:33:02;;;;;;;5.53;4.65;;;;;;;24.65;40.44;93603.72;5016338;28;20033;-60
2022/11/17 06:35:32;;;;;;;6.00;4.80;;;;;;;24.57;40.93;93624.13;5017140;28;20542;-67
2022/11/17 06:37:58;;;;;;;6.22;4.85;;;;;;;24.50;41.18;93633.06;4983954;28;20493;-67
2022/11/17 06:40:25;;;;;;;6.68;4.68;;;;;;;24.52;40.92;93644.88;4999663;28;20140;-66
2022/11/17 06:43:02;;;;;;;5.55;4.53;;;;;;;24.33;41.58;93654.00;4983950;28;20048;-65
2022/11/17 06:45:33;;;;;;;7.13;4.78;;;;;;;24.46;41.01;93625.22;4982428;28;20137;-64
2022/11/17 06:47:58;;;;;;;8.85;4.63;;;;;;;24.68;40.92;93667.38;5001830;28;20025;-68
2022/11/17 06:50:24;;;;;;;6.53;4.78;;;;;;;24.86;40.83;93667.72;4999770;28;20040;-64
2022/11/17 06:52:49;;;;;;;6.88;5.05;;;;;;;24.45;40.46;93639.41;4978820;28;20037;-66
2022/11/17 06:55:14;;;;;;;5.43;4.63;;;;;;;24.39;40.99;93658.00;5015146;28;20052;-65
2022/11/17 06:57:40;;;;;;;6.97;5.00;;;;;;;23.34;41.04;93552.91;4999505;28;20021;-64
2022/11/17 07:00:06;;;;;;;6.70;4.57;;;;;;;24.73;40.96;93734.75;4998378;28;20033;-62
2022/11/17 07:02:32;;;;;;;6.30;4.30;;;;;;;23.70;41.18;93599.84;5015300;28;20061;-66
2022/11/17 07:04:57;;;;;;;5.38;4.30;;;;;;;25.19;40.27;93743.03;5013996;28;20053;-61
2022/11/17 07:07:23;;;;;;;6.78;5.05;;;;;;;25.10;39.83;93702.63;4997782;28;20672;-64
2022/11/17 07:09:49;;;;;;;6.13;4.47;;;;;;;25.28;40.11;93739.72;4997144;28;20499;-69
2022/11/17 07:12:15;;;;;;;5.32;4.47;;;;;;;25.67;39.43;93708.97;5015970;28;20116;-69
2022/11/17 07:14:40;;;;;;;5.90;4.68;;;;;;;23.73;40.29;93485.00;4998606;28;20072;-66
2022/11/17 07:17:06;;;;;;;6.60;4.25;;;;;;;24.85;40.79;93704.47;4996610;28;20061;-65
2022/11/17 07:19:31;;;;;;;9.55;4.70;;;;;;;25.15;40.27;93671.63;4965006;28;20421;-62
2022/11/17 07:21:57;;;;;;;6.25;4.50;;;;;;;24.99;40.51;93648.41;5014355;28;20361;-63
2022/11/17 07:24:22;;;;;;;5.47;4.18;;;;;;;25.03;40.59;93637.81;4982790;28;20044;-62
2022/11/17 07:26:48;;;;;;;5.90;4.35;;;;;;;25.06;39.56;93557.47;4997687;28;20982;-64
2022/11/17 07:29:13;;;;;;;6.90;4.32;;;;;;;25.39;40.04;93591.72;5014758;28;20057;-66
2022/11/17 07:31:39;;;;;;;6.38;4.30;;;;;;;25.64;39.54;93589.72;4981553;28;20051;-66
2022/11/17 07:34:04;;;;;;;6.10;3.88;;;;;;;25.73;39.64;93537.19;4964330;28;20041;-64
2022/11/17 07:36:30;;;;;;;7.10;3.92;;;;;;;24.58;39.88;93390.84;4966345;28;20029;-62
2022/11/17 07:38:55;;;;;;;8.65;4.20;;;;;;;25.03;40.21;93484.84;5016022;28;20454;-61
2022/11/17 07:41:21;;;;;;;9.35;4.20;;;;;;;25.21;40.01;93450.84;5011424;28;20183;-63
2022/11/17 07:43:46;;;;;;;7.38;4.22;;;;;;;25.71;40.81;93562.38;4994513;28;20053;-63
2022/11/17 07:46:13;;;;;;;7.05;3.85;;;;;;;25.66;39.92;93488.75;4974255;28;20529;-61
2022/11/17 07:48:39;;;;;;;7.32;4.03;;;;;;;25.90;40.61;93557.81;4994634;28;20049;-64
2022/11/17 07:51:04;;;;;;;9.77;4.35;;;;;;;25.61;40.92;93547.09;4992845;28;20471;-65
2022/11/17 07:53:31;;;;;;;6.82;4.07;;;;;;;25.39;41.30;93528.84;4962790;28;20662;-63
2022/11/17 07:56:07;;;;;;;7.75;4.40;;;;;;;23.75;40.80;93252.75;5009172;28;20045;-63
2022/11/17 07:58:33;;;;;;;10.18;4.20;;;;;;;25.61;41.49;93552.56;4972454;28;20061;-64
2022/11/17 08:00:59;;;;;;;7.30;4.18;;;;;;;25.53;41.54;93590.91;4978503;28;20092;-65
2022/11/17 08:03:24;;;;;;;9.13;4.00;;;;;;;25.40;41.43;93576.78;4980343;28;20135;-64
2022/11/17 08:05:50;;;;;;;8.85;4.55;;;;;;;24.01;41.15;93379.13;4994490;28;20160;-64
2022/11/17 08:08:15;;;;;;;7.03;4.05;;;;;;;25.18;41.63;93569.44;4964926;28;20050;-64
2022/11/17 08:10:41;;;;;;;6.65;4.13;;;;;;;24.77;41.42;93516.66;4996303;28;20049;-63
2022/11/17 08:13:07;;;;;;;5.28;3.65;;;;;;;24.10;41.88;93430.34;4996688;28;20498;-64
2022/11/17 08:15:32;;;;;;;7.03;4.03;;;;;;;25.23;41.71;93606.78;4981673;28;20064;-62
2022/11/17 08:17:59;;;;;;;6.05;3.83;;;;;;;24.87;41.67;93581.78;5016011;28;20118;-63
2022/11/17 08:20:24;;;;;;;7.00;4.00;;;;;;;24.92;41.94;93627.28;4981113;28;20048;-64
2022/11/17 08:22:51;;;;;;;8.20;4.10;;;;;;;25.07;41.83;93619.03;4996962;28;20041;-63
2022/11/17 08:25:17;;;;;;;6.35;3.65;;;;;;;24.88;42.20;93620.72;4981550;28;20037;-64
2022/11/17 08:27:43;;;;;;;7.05;3.95;;;;;;;24.78;42.12;93643.72;4963812;28;20048;-62
2022/11/17 08:30:08;;;;;;;7.18;3.72;;;;;;;24.83;42.31;93625.13;4981568;28;20029;-62
2022/11/17 08:32:34;;;;;;;9.40;4.40;;;;;;;23.56;41.83;93443.22;5013868;28;20171;-62
2022/11/17 08:35:02;;;;;;;6.82;3.90;;;;;;;24.86;42.15;93667.72;4996098;28;20421;-63
2022/11/17 08:37:28;;;;;;;6.07;3.20;;;;;;;23.52;41.96;93470.81;4968284;28;20068;-62
2022/11/17 08:39:54;;;;;;;6.38;3.30;;;;;;;23.50;42.33;93472.66;4995955;28;20120;-63
2022/11/17 08:42:19;;;;;;;6.55;3.88;;;;;;;24.72;42.25;93640.44;5015198;28;20037;-65
2022/11/17 08:44:45;;;;;;;5.97;3.60;;;;;;;24.68;42.33;93656.47;4963018;28;20053;-63
2022/11/17 08:47:10;;;;;;;4.95;3.30;;;;;;;24.61;42.10;93613.56;4981112;28;20442;-64
2022/11/17 08:49:36;;;;;;;4.57;3.25;;;;;;;24.60;41.97;93650.31;4979334;28;20816;-63
2022/11/17 08:52:01;;;;;;;5.53;3.10;;;;;;;24.66;42.43;93686.31;4996131;28;20431;-62
2022/11/17 08:54:27;;;;;;;5.85;3.65;;;;;;;24.54;42.60;93657.97;4995498;28;20057;-62
2022/11/17 08:56:56;;;;;;;6.53;3.13;;;;;;;24.41;42.03;93633.63;4994982;28;20139;-62
2022/11/17 08:59:22;;;;;;;5.75;3.33;;;;;;;24.42;42.23;93656.91;5012147;28;20049;-63
2022/11/17 09:01:47;;;;;;;4.47;3.08;;;;;;;24.26;42.35;93633.63;5013711;28;20053;-63
2022/11/17 09:04:13;;;;;;;5.18;3.42;;;;;;;24.35;42.54;93652.19;4981094;28;20494;-62
2022/11/17 09:06:38;;;;;;;4.72;3.20;;;;;;;22.30;42.46;93367.69;5014588;28;20050;-61
2022/11/17 09:09:03;;;;;;;6.28;3.20;;;;;;;24.38;42.55;93645.63;4978676;28;20044;-62
2022/11/17 09:11:29;;;;;;;6.32;3.17;;;;;;;24.39;42.37;93647.06;5013707;28;20052;-63
2022/11/17 09:13:54;;;;;;;4.78;3.10;;;;;;;23.34;42.45;93503.88;4996253;28;20049;-64
2022/11/17 09:16:22;;;;;;;5.45;3.10;;;;;;;24.44;42.13;93649.63;4964828;28;20408;-62
2022/11/17 09:18:51;;;;;;;5.93;3.63;;;;;;;24.31;42.61;93645.63;5014469;28;20049;-64
2022/11/17 09:21:17;;;;;;;4.90;3.10;;;;;;;24.13;42.27;93620.16;5015016;28;20025;-63
2022/11/17 09:23:42;;;;;;;5.45;2.85;;;;;;;24.33;42.73;93643.81;4963907;28;20131;-63
2022/11/17 09:26:10;;;;;;;6.70;3.47;;;;;;;24.26;42.65;93639.09;4995235;28;20056;-62
2022/11/17 09:28:35;;;;;;;7.30;3.42;;;;;;;24.44;42.30;93665.28;4992645;28;20529;-66
2022/11/17 09:31:08;;;;;;;4.85;2.90;;;;;;;22.99;42.56;93431.28;4994075;28;20045;-62
2022/11/17 09:33:33;;;;;;;5.07;3.00;;;;;;;24.21;42.75;93647.44;5013549;28;20035;-63
2022/11/17 09:35:58;;;;;;;4.18;2.83;;;;;;;24.40;43.08;93648.53;4993424;28;20084;-62
2022/11/17 09:38:24;;;;;;;4.57;2.85;;;;;;;24.38;42.82;93651.09;5013022;28;20430;-66
2022/11/17 09:40:50;;;;;;;4.78;3.20;;;;;;;23.40;43.21;93509.88;4959814;28;20052;-67
2022/11/17 09:43:24;;;;;;;6.68;3.42;;;;;;;24.28;43.56;93668.53;4977350;28;20064;-66
2022/11/17 09:45:49;;;;;;;3.95;2.75;;;;;;;22.25;43.28;93335.94;5000762;28;20162;-66
2022/11/17 09:48:47;;;;;;;4.63;2.97;;;;;;;23.14;42.75;93447.63;4980667;28;20029;-63
2022/11/17 09:51:14;;;;;;;5.20;3.08;;;;;;;24.42;43.09;93662.34;4982538;28;20049;-62
2022/11/17 09:53:47;;;;;;;5.28;3.00;;;;;;;24.51;42.82;93648.88;5015091;28;20037;-62
2022/11/17 09:56:13;;;;;;;4.50;2.60;;;;;;;24.45;43.05;93644.88;4983895;28;20335;-64
2022/11/17 09:58:56;;;;;;;6.25;3.10;;;;;;;24.36;43.16;93637.25;4982659;28;20052;-65
2022/11/17 10:01:21;;;;;;;5.53;2.80;;;;;;;23.06;43.43;93481.53;4976165;28;20053;-61
2022/11/17 10:03:50;;;;;;;5.63;2.58;;;;;;;24.19;43.91;93631.63;4979363;28;20191;-62
2022/11/17 10:06:20;;;;;;;6.10;2.63;;;;;;;24.13;44.18;93636.53;4993633;28;20522;-60
2022/11/17 10:08:59;;;;;;;10.20;2.80;;;;;;;24.18;43.76;93627.44;4967829;28;20128;-61
2022/11/17 10:11:33;;;;;;;5.97;2.67;;;;;;;24.15;43.29;93625.78;5011795;28;20043;-64
2022/11/17 10:14:12;;;;;;;6.03;2.75;;;;;;;24.26;43.51;93644.53;4994543;28;20068;-62
2022/11/17 10:16:39;;;;;;;5.68;2.88;;;;;;;24.19;43.73;93634.34;5010508;28;20504;-63
2022/11/17 10:19:21;;;;;;;6.07;2.85;;;;;;;24.19;43.32;93634.34;4997435;28;20065;-61
2022/11/17 10:21:50;;;;;;;5.20;2.78;;;;;;;23.66;43.46;93556.59;4996529;28;21607;-61
2022/11/17 10:24:42;;;;;;;5.07;2.60;;;;;;;24.13;43.50;93652.19;4982882;28;20514;-65
2022/11/17 10:27:29;;;;;;;4.53;2.67;;;;;;;24.12;43.38;93635.06;5018761;28;20630;-63
2022/11/17 10:29:56;;;;;;;4.85;2.45;;;;;;;24.16;43.29;93621.81;4995328;28;20113;-62
2022/11/17 10:32:21;;;;;;;3.95;2.67;;;;;;;22.81;43.34;93441.75;5017899;28;20053;-62
2022/11/17 10:34:46;;;;;;;3.65;2.25;;;;;;;24.16;43.36;93624.53;4984137;28;20041;-62
2022/11/17 10:37:12;;;;;;;3.88;2.80;;;;;;;24.19;43.58;93652.72;4997618;28;20561;-64
2022/11/17 10:39:39;;;;;;;4.28;2.47;;;;;;;24.16;43.43;93624.53;5016798;28;20029;-64
2022/11/17 10:42:30;;;;;;;4.07;2.72;;;;;;;24.13;43.23;93633.09;5000823;28;20021;-65
2022/11/17 10:44:57;;;;;;;8.85;3.40;;;;;;;23.19;42.98;93470.50;4977112;28;20081;-63
2022/11/17 10:47:26;;;;;;;8.38;2.67;;;;;;;24.34;43.42;93618.00;5015589;28;20057;-61
2022/11/17 10:50:04;;;;;;;6.93;2.75;;;;;;;24.29;43.86;93616.16;4993431;28;20088;-64
2022/11/17 10:52:30;;;;;;;5.43;2.75;;;;;;;23.33;43.74;93474.47;4985679;28;20045;-63
2022/11/17 10:55:17;;;;;;;5.25;2.40;;;;;;;24.44;43.79;93627.06;4982450;28;20541;-63
2022/11/17 10:57:43;;;;;;;7.50;2.88;;;;;;;21.83;43.22;93235.50;5015675;28;20502;-61
2022/11/17 11:00:22;;;;;;;5.47;3.20;;;;;;;24.74;43.45;93632.44;5017971;28;20040;-61
2022/11/17 11:02:48;;;;;;;5.43;2.50;;;;;;;23.36;43.49;93405.28;5015933;28;20033;-62
2022/11/17 11:05:15;;;;;;;5.68;2.50;;;;;;;23.48;43.52;93437.78;4999256;28;20048;-66
2022/11/17 11:07:41;;;;;;;5.68;2.50;;;;;;;24.81;43.91;93637.88;4996577;28;20532;-66
2022/11/17 11:10:18;;;;;;;5.22;2.78;;;;;;;24.81;43.78;93664.44;4979157;28;20049;-61
2022/11/17 11:13:02;;;;;;;6.13;2.63;;;;;;;24.34;43.51;93574.34;4989234;28;20017;-65
2022/11/17 11:15:33;;;;;;;6.45;2.17;;;;;;;24.84;43.67;93664.81;5014069;28;20096;-63
2022/11/17 11:17:59;;;;;;;6.75;2.38;;;;;;;25.05;43.58;93640.72;4997814;28;20029;-63
2022/11/17 11:20:49;;;;;;;7.18;2.70;;;;;;;25.40;42.50;93629.44;5014768;28;20056;-64
2022/11/17 11:23:24;;;;;;;5.47;2.25;;;;;;;25.26;42.79;93605.66;5004816;28;20064;-65
2022/11/17 11:26:21;;;;;;;4.25;1.30;;;;;;;25.05;40.61;93586.09;4982635;28;20077;-62
2022/11/17 11:28:47;;;;;;;3.40;1.15;;;;;;;25.03;40.27;93631.63;4990482;28;20088;-63
2022/11/17 11:31:43;;;;;;;3.03;1.20;;;;;;;25.11;39.59;93630.31;5019450;28;20073;-64
2022/11/17 11:34:32;;;;;;;1.70;0.90;;;;;;;25.01;39.21;93613.06;4981534;28;20054;-60
2022/11/17 11:37:13;;;;;;;2.10;0.90;;;;;;;25.18;39.37;93686.19;4985374;28;20029;-65
2022/11/17 11:40:02;;;;;;;2.30;0.90;;;;;;;25.06;38.93;93636.69;5014701;28;20033;-61
2022/11/17 11:42:56;;;;;;;4.47;0.93;;;;;;;24.83;39.21;93630.59;4998330;28;20183;-63
2022/11/17 11:46:08;;;;;;;2.58;0.90;;;;;;;25.01;38.86;93629.44;4998547;28;20044;-66
2022/11/17 11:48:34;;;;;;;1.50;0.88;;;;;;;24.70;39.25;93621.88;4996182;28;20046;-68
2022/11/17 11:51:02;;;;;;;2.47;0.80;;;;;;;24.65;39.40;93613.88;5015765;28;20401;-70
2022/11/17 11:53:30;;;;;;;1.77;0.68;;;;;;;24.76;38.32;93630.59;4980877;28;20056;-62
2022/11/17 11:56:11;;;;;;;1.45;0.63;;;;;;;24.63;38.50;93633.56;4998226;28;20053;-63
2022/11/17 11:58:39;;;;;;;1.30;0.60;;;;;;;24.79;38.51;93617.88;4981033;28;20061;-61
2022/11/17 12:01:05;;;;;;;1.63;0.70;;;;;;;24.81;38.57;93620.75;4964441;28;20062;-63
2022/11/17 12:04:09;;;;;;;1.52;0.65;;;;;;;24.63;39.17;93632.84;4965570;28;20022;-62
2022/11/17 12:06:48;;;;;;;1.85;0.65;;;;;;;25.05;38.70;93640.72;4949124;28;20041;-61